Time;durP1;ratioP1;P1;durP2;ratioP2;P2;SDS_P1;SDS_P2;PMS_P1;PMS_P2;Temp;Humidity;BMP_temperature;BMP_pressure;BME280_temperature;BME280_humidity;BME280_pressure;Samples;Min_cycle;Max_cycle;Signal;HPM_P1;HPM_P2
2024/03/12 00:00:17;;;;;;;64.50;40.80;;;;;;;7.52;97.45;99451.66;133982;1307;23112;-82
2024/03/12 00:03:19;;;;;;;65.60;42.20;;;;;;;7.57;97.67;99449.70;133949;1302;23098;-81
2024/03/12 00:06:20;;;;;;;63.00;40.20;;;;;;;7.60;97.61;99443.37;133758;1302;23278;-81
2024/03/12 00:09:22;;;;;;;68.50;41.10;;;;;;;7.61;97.77;99446.80;133974;1302;22267;-81
2024/03/12 00:12:22;;;;;;;65.50;39.90;;;;;;;7.57;97.76;99451.65;133953;1307;22406;-82
2024/03/12 00:15:24;;;;;;;60.50;38.50;;;;;;;7.54;97.75;99455.34;133944;1307;23359;-81
2024/03/12 00:18:25;;;;;;;62.90;38.60;;;;;;;7.51;97.70;99455.42;133954;1302;22278;-81
2024/03/12 00:21:25;;;;;;;60.50;39.10;;;;;;;7.49;98.04;99459.92;133934;1301;22410;-81
2024/03/12 00:24:26;;;;;;;60.60;39.10;;;;;;;7.46;98.27;99456.68;133960;1307;23139;-81
2024/03/12 00:27:27;;;;;;;63.20;40.50;;;;;;;7.44;98.25;99451.59;133953;1301;22427;-81
2024/03/12 00:30:30;;;;;;;63.20;40.50;;;;;;;7.47;98.56;99446.95;133988;1307;22262;-82
2024/03/12 00:33:31;;;;;;;66.70;41.10;;;;;;;7.46;98.73;99451.52;133917;1302;22465;-81
2024/03/12 00:36:32;;;;;;;70.10;41.50;;;;;;;7.43;99.09;99456.14;133792;1305;22245;-81
2024/03/12 00:39:32;;;;;;;69.90;41.90;;;;;;;7.40;98.77;99457.49;133978;1302;22380;-82
2024/03/12 00:42:33;;;;;;;60.90;39.00;;;;;;;7.40;98.78;99457.00;133970;1301;23194;-81
2024/03/12 00:45:41;;;;;;;66.10;41.80;;;;;;;7.38;98.75;99455.55;133967;1302;22442;-82
2024/03/12 00:48:41;;;;;;;71.40;41.10;;;;;;;7.42;98.75;99456.41;133974;1301;22392;-81
2024/03/12 00:51:42;;;;;;;64.10;40.70;;;;;;;7.45;98.72;99456.31;133891;1304;22402;-81
2024/03/12 00:54:45;;;;;;;60.70;41.10;;;;;;;7.49;98.95;99450.71;133937;1307;22394;-81
2024/03/12 00:57:50;;;;;;;65.90;42.70;;;;;;;7.54;98.73;99453.52;133937;1307;22455;-81
2024/03/12 01:00:53;;;;;;;58.70;39.10;;;;;;;7.57;98.65;99456.88;133901;1300;23038;-81
2024/03/12 01:03:56;;;;;;;61.90;39.40;;;;;;;7.59;98.42;99458.05;133950;1307;23456;-81
2024/03/12 01:06:58;;;;;;;61.60;38.50;;;;;;;7.59;98.43;99457.26;133931;1304;23122;-81
2024/03/12 01:10:02;;;;;;;58.90;39.20;;;;;;;7.54;98.38;99453.35;133962;1307;22364;-81
2024/03/12 01:13:08;;;;;;;62.50;40.60;;;;;;;7.52;98.55;99449.92;133971;1302;22887;-81
2024/03/12 01:16:09;;;;;;;62.20;39.90;;;;;;;7.55;98.74;99454.50;133973;1307;22395;-81
2024/03/12 01:19:12;;;;;;;63.70;42.10;;;;;;;7.60;98.70;99449.58;133781;1307;22365;-81
2024/03/12 01:22:15;;;;;;;64.50;41.30;;;;;;;7.65;98.81;99445.71;133993;1301;22364;-82
2024/03/12 01:25:23;;;;;;;61.90;41.00;;;;;;;7.69;98.69;99448.21;133981;1304;23099;-81
2024/03/12 01:28:27;;;;;;;61.10;39.80;;;;;;;7.73;98.58;99449.97;133947;1305;22487;-81
2024/03/12 01:31:27;;;;;;;66.40;41.80;;;;;;;7.76;98.67;99451.59;133936;1290;22415;-81
2024/03/12 01:34:28;;;;;;;59.90;39.90;;;;;;;7.77;98.78;99447.73;133946;1303;22388;-81
2024/03/12 01:37:29;;;;;;;61.10;40.00;;;;;;;7.76;98.60;99446.08;133974;1302;22400;-82
2024/03/12 01:40:30;;;;;;;63.20;39.60;;;;;;;7.75;98.39;99447.27;133913;1301;22895;-81
2024/03/12 01:43:35;;;;;;;62.60;41.60;;;;;;;7.77;98.54;99444.02;133919;1300;22378;-81
2024/03/12 01:46:39;;;;;;;61.50;39.10;;;;;;;7.75;98.22;99446.54;133934;1307;22133;-81
2024/03/12 01:49:40;;;;;;;56.80;39.00;;;;;;;7.71;98.05;99447.56;134009;1296;23051;-81
2024/03/12 01:52:43;;;;;;;;;;;;;;;7.69;98.24;99450.90;133984;1301;22470;-83
2024/03/12 01:55:44;;;;;;;60.90;36.20;;;;;;;7.68;98.25;99451.42;133948;1301;22256;-81
2024/03/12 01:58:49;;;;;;;61.10;38.50;;;;;;;7.67;98.33;99451.99;133969;1307;22358;-81
2024/03/12 02:01:59;;;;;;;60.30;39.00;;;;;;;7.60;98.20;99454.48;133969;1301;22233;-81
2024/03/12 02:05:00;;;;;;;;;;;;;;;7.55;98.44;99459.52;134010;1301;22435;-81
2024/03/12 02:08:01;;;;;;;60.20;38.00;;;;;;;7.55;98.63;99456.59;133925;1302;22388;-81
2024/03/12 02:11:02;;;;;;;60.70;39.60;;;;;;;7.58;98.68;99456.43;133981;1301;23245;-81
2024/03/12 02:14:02;;;;;;;69.10;41.70;;;;;;;7.61;98.90;99458.08;133981;1301;22263;-81
2024/03/12 02:17:05;;;;;;;64.20;40.50;;;;;;;7.65;98.87;99458.58;133982;1307;22907;-81
2024/03/12 02:20:09;;;;;;;60.40;40.40;;;;;;;7.68;98.90;99457.39;133950;1303;22185;-81
2024/03/12 02:23:09;;;;;;;62.50;38.00;;;;;;;7.71;98.77;99454.92;133754;1307;22410;-82
2024/03/12 02:26:13;;;;;;;60.30;39.80;;;;;;;7.72;98.72;99455.35;134021;1300;23190;-81
2024/03/12 02:29:14;;;;;;;61.70;41.50;;;;;;;7.70;98.43;99454.61;133908;1301;23039;-81
2024/03/12 02:32:15;;;;;;;63.80;40.50;;;;;;;7.71;98.66;99454.23;133918;1302;22440;-81
2024/03/12 02:35:16;;;;;;;61.80;40.00;;;;;;;7.68;98.47;99450.63;133897;1307;22257;-81
2024/03/12 02:38:18;;;;;;;70.30;41.70;;;;;;;7.63;98.65;99448.52;133822;1302;23167;-81
2024/03/12 02:41:22;;;;;;;66.00;41.90;;;;;;;7.59;98.71;99447.19;134045;1302;22832;-81
2024/03/12 02:44:22;;;;;;;68.10;44.00;;;;;;;7.60;98.82;99444.45;133980;1302;23147;-81
2024/03/12 02:47:23;;;;;;;70.60;41.50;;;;;;;7.62;98.91;99443.16;133993;1307;22417;-82
2024/03/12 02:50:24;;;;;;;73.50;44.60;;;;;;;7.60;98.78;99444.13;133995;1301;23155;-82
2024/03/12 02:53:25;;;;;;;63.40;41.20;;;;;;;7.57;98.90;99447.42;134017;1307;23288;-81
2024/03/12 02:56:25;;;;;;;70.70;44.70;;;;;;;7.54;99.08;99449.00;133957;1300;22392;-81
2024/03/12 02:59:27;;;;;;;71.20;43.50;;;;;;;7.52;99.22;99448.97;133741;1302;23037;-81
2024/03/12 03:02:29;;;;;;;70.30;42.80;;;;;;;7.49;99.41;99449.20;133976;1301;22353;-81
2024/03/12 03:05:29;;;;;;;74.90;43.50;;;;;;;7.45;99.43;99454.66;133901;1301;22516;-81
2024/03/12 03:08:31;;;;;;;68.30;43.00;;;;;;;7.43;99.42;99456.13;133935;1302;22267;-81
2024/03/12 03:11:32;;;;;;;65.80;42.10;;;;;;;7.40;99.46;99457.30;133994;1302;22386;-81
2024/03/12 03:14:33;;;;;;;72.00;43.90;;;;;;;7.38;99.85;99461.88;133927;1302;22471;-82
2024/03/12 03:17:33;;;;;;;73.60;44.40;;;;;;;7.37;99.91;99454.80;134019;1302;22369;-82
2024/03/12 03:20:34;;;;;;;66.20;42.60;;;;;;;7.36;99.98;99459.02;133953;1300;22218;-82
2024/03/12 03:23:42;;;;;;;70.60;44.20;;;;;;;7.34;99.99;99462.67;134007;1302;22474;-82
2024/03/12 03:26:42;;;;;;;73.30;44.10;;;;;;;7.33;99.93;99461.08;133946;1302;22285;-81
2024/03/12 03:29:43;;;;;;;71.00;44.00;;;;;;;7.34;99.99;99459.17;134000;1302;22184;-81
2024/03/12 03:32:47;;;;;;;70.40;42.60;;;;;;;7.39;99.99;99460.57;133958;1305;22395;-81
2024/03/12 03:35:51;;;;;;;71.60;44.20;;;;;;;7.45;100.00;99462.43;133913;1307;22352;-81
2024/03/12 03:38:52;;;;;;;75.00;43.70;;;;;;;7.49;100.00;99460.05;134020;1304;22267;-81
2024/03/12 03:41:55;;;;;;;73.70;45.20;;;;;;;7.53;100.00;99464.57;133991;1307;23108;-81
2024/03/12 03:44:55;;;;;;;74.40;43.10;;;;;;;7.55;100.00;99463.43;133948;1307;22244;-82
2024/03/12 03:47:56;;;;;;;73.00;43.70;;;;;;;7.57;99.96;99462.57;133929;1307;22213;-81
2024/03/12 03:50:56;;;;;;;71.30;42.90;;;;;;;7.56;99.91;99466.14;133950;1305;22238;-82
2024/03/12 03:54:09;;;;;;;75.80;44.40;;;;;;;7.54;99.63;99464.61;133973;1302;23224;-81
2024/03/12 03:57:13;;;;;;;71.00;43.20;;;;;;;7.53;99.80;99468.31;133975;1303;22386;-82
2024/03/12 04:00:16;;;;;;;68.50;41.50;;;;;;;7.54;99.66;99470.45;133890;1307;22269;-82
2024/03/12 04:03:17;;;;;;;73.00;42.10;;;;;;;7.51;99.73;99468.67;133951;1307;22358;-81
2024/03/12 04:06:23;;;;;;;70.90;42.10;;;;;;;7.48;99.57;99471.13;133969;1303;22378;-82
2024/03/12 04:09:25;;;;;;;72.90;41.10;;;;;;;7.48;99.72;99466.64;133986;1305;23254;-82
2024/03/12 04:12:28;;;;;;;69.70;40.50;;;;;;;7.49;99.69;99468.52;133740;1307;23134;-81
2024/03/12 04:15:33;;;;;;;71.80;41.30;;;;;;;7.50;99.58;99470.22;133878;1307;22378;-81
2024/03/12 04:18:36;;;;;;;70.60;40.40;;;;;;;7.47;99.68;99470.81;133776;1307;23599;-81
2024/03/12 04:21:38;;;;;;;69.10;41.60;;;;;;;7.45;99.58;99473.83;133886;1305;22233;-81
2024/03/12 04:24:43;;;;;;;72.10;42.90;;;;;;;7.46;99.74;99475.02;133741;1307;22561;-81
2024/03/12 04:27:53;;;;;;;78.80;42.20;;;;;;;7.46;99.67;99475.14;133940;1302;22482;-81
2024/03/12 04:30:59;;;;;;;75.90;41.30;;;;;;;7.48;99.86;99480.60;133755;1301;23036;-81
2024/03/12 04:33:59;;;;;;;;;;;;;;;7.52;99.77;99479.98;133743;1304;22456;-80
2024/03/12 04:37:00;;;;;;;71.60;41.60;;;;;;;7.56;99.98;99483.10;133941;1305;23046;-81
2024/03/12 04:40:25;;;;;;;75.20;43.00;;;;;;;7.58;99.91;99481.05;133982;1302;22392;-81
2024/03/12 04:43:26;;;;;;;75.20;42.10;;;;;;;7.61;99.85;99490.75;133964;1302;22273;-80
2024/03/12 04:46:26;;;;;;;77.30;44.60;;;;;;;7.61;99.88;99491.65;133739;1300;22362;-81
2024/03/12 04:49:27;;;;;;;74.40;44.30;;;;;;;7.62;99.86;99493.49;133884;1301;23249;-81
2024/03/12 04:52:27;;;;;;;;;;;;;;;7.61;99.88;99496.40;133742;1305;23126;-81
2024/03/12 04:55:28;;;;;;;72.10;41.80;;;;;;;7.61;99.87;99502.45;133908;1307;23735;-81
2024/03/12 04:58:29;;;;;;;76.00;44.70;;;;;;;7.61;99.87;99508.42;133756;1301;22405;-80
2024/03/12 05:01:29;;;;;;;;;;;;;;;7.61;99.89;99508.02;133742;1300;22568;-81
2024/03/12 05:04:32;;;;;;;76.10;44.40;;;;;;;7.62;99.89;99513.16;134020;1302;23323;-80
2024/03/12 05:07:32;;;;;;;81.60;44.10;;;;;;;7.64;99.85;99516.22;133962;1307;22257;-82
2024/03/12 05:10:33;;;;;;;83.30;45.20;;;;;;;7.64;99.96;99517.23;133969;1305;22381;-83
2024/03/12 05:13:34;;;;;;;;;;;;;;;7.63;99.91;99515.59;133927;1302;22554;-79
2024/03/12 05:16:34;;;;;;;76.00;42.50;;;;;;;7.60;99.84;99518.19;133948;1302;22458;-81
2024/03/12 05:19:35;;;;;;;76.60;44.30;;;;;;;7.59;99.85;99519.13;134012;1300;22237;-86
2024/03/12 05:22:36;;;;;;;80.80;46.40;;;;;;;7.58;99.93;99521.75;133950;1307;22379;-82
2024/03/12 05:25:41;;;;;;;73.60;43.70;;;;;;;7.58;99.98;99523.54;133899;1307;22183;-80
2024/03/12 05:28:41;;;;;;;80.40;44.10;;;;;;;7.57;100.00;99525.60;133935;1301;22605;-79
2024/03/12 05:31:43;;;;;;;72.20;42.00;;;;;;;7.55;99.98;99530.31;133885;1302;23131;-80
2024/03/12 05:34:47;;;;;;;78.90;44.30;;;;;;;7.51;100.00;99530.77;133952;1307;22371;-81
2024/03/12 05:38:02;;;;;;;75.50;44.60;;;;;;;7.51;100.00;99530.27;133897;1302;22443;-80
2024/03/12 05:50:51;;;;;;;68.90;41.80;;;;;;;7.50;100.00;99546.21;133940;1301;22238;-80
2024/03/12 05:53:51;;;;;;;74.10;42.50;;;;;;;7.49;100.00;99544.33;133982;1305;22287;-81
2024/03/12 05:56:55;;;;;;;77.20;43.50;;;;;;;7.48;100.00;99548.84;133713;1302;22960;-81
2024/03/12 05:59:55;;;;;;;76.60;42.40;;;;;;;7.47;99.99;99552.35;133949;1301;22462;-82
2024/03/12 06:02:59;;;;;;;80.30;44.40;;;;;;;7.48;100.00;99555.08;133784;1307;22467;-84
2024/03/12 06:05:59;;;;;;;76.00;45.30;;;;;;;7.48;100.00;99553.09;133910;1292;22257;-84
2024/03/12 06:09:00;;;;;;;84.70;45.90;;;;;;;7.46;100.00;99558.20;133936;1302;22197;-82
2024/03/12 06:12:03;;;;;;;78.70;44.30;;;;;;;7.43;100.00;99561.39;133946;1302;22374;-82
2024/03/12 06:15:07;;;;;;;78.60;46.90;;;;;;;7.40;100.00;99560.38;133976;1307;22346;-82
2024/03/12 06:18:12;;;;;;;88.10;48.60;;;;;;;7.40;100.00;99565.30;133932;1307;23556;-82
2024/03/12 06:21:12;;;;;;;98.10;53.20;;;;;;;7.39;100.00;99569.17;133919;1292;22261;-82
2024/03/12 06:24:16;;;;;;;96.60;53.10;;;;;;;7.38;100.00;99575.58;133872;1296;22233;-81
2024/03/12 06:27:18;;;;;;;92.90;52.70;;;;;;;7.37;100.00;99576.39;133884;1302;22287;-82
2024/03/12 06:30:18;;;;;;;91.60;49.60;;;;;;;7.36;100.00;99586.31;133920;1307;22233;-82
2024/03/12 06:33:19;;;;;;;;;;;;;;;7.35;100.00;99586.26;133944;1307;22444;-81
2024/03/12 06:36:20;;;;;;;87.40;49.20;;;;;;;7.37;100.00;99592.63;133980;1307;22361;-81
2024/03/12 06:39:20;;;;;;;;;;;;;;;7.39;100.00;99595.97;133966;1307;22479;-82
2024/03/12 06:42:29;;;;;;;90.80;48.60;;;;;;;7.39;100.00;99602.23;133597;1308;22363;-82
2024/03/12 06:45:29;;;;;;;90.10;48.20;;;;;;;7.39;100.00;99605.19;133880;1302;22388;-82
2024/03/12 06:48:30;;;;;;;104.40;51.00;;;;;;;7.38;100.00;99606.09;133935;1299;22371;-82
2024/03/12 06:51:32;;;;;;;94.70;49.70;;;;;;;7.36;100.00;99609.61;133654;1302;22432;-84
2024/03/12 06:54:36;;;;;;;100.70;51.60;;;;;;;7.33;100.00;99610.23;133948;1302;22326;-86
2024/03/12 06:57:37;;;;;;;95.90;50.40;;;;;;;7.33;100.00;99614.17;133928;1307;22430;-84
2024/03/12 07:00:40;;;;;;;99.60;51.40;;;;;;;7.32;100.00;99617.05;133965;1298;22363;-83
2024/03/12 07:03:42;;;;;;;101.50;50.30;;;;;;;7.33;100.00;99619.89;133893;1305;22989;-85
2024/03/12 07:06:44;;;;;;;106.30;50.40;;;;;;;7.32;100.00;99617.91;133890;1303;22387;-86
2024/03/12 07:09:49;;;;;;;110.10;53.00;;;;;;;7.30;100.00;99621.27;133911;1304;22362;-77
2024/03/12 07:12:51;;;;;;;112.40;51.10;;;;;;;7.51;100.00;99624.45;133964;1302;22235;-76
2024/03/12 07:15:51;;;;;;;;;;;;;;;8.06;100.00;99619.50;133908;1302;23294;-86
2024/03/12 07:18:52;;;;;;;114.50;54.50;;;;;;;8.09;100.00;99625.19;133551;1300;22369;-87
2024/03/12 07:21:54;;;;;;;108.10;53.90;;;;;;;7.98;100.00;99625.48;133714;1300;22351;-87
2024/03/12 07:24:55;;;;;;;110.70;52.60;;;;;;;7.87;100.00;99629.13;133877;1303;22338;-87
2024/03/12 07:27:57;;;;;;;;;;;;;;;7.77;100.00;99628.55;133923;1307;22467;-86
2024/03/12 07:30:58;;;;;;;111.90;51.20;;;;;;;7.72;100.00;99629.78;133845;1307;22332;-87
2024/03/12 07:33:59;;;;;;;117.30;56.10;;;;;;;7.67;100.00;99628.40;133955;1301;22430;-86
2024/03/12 07:37:00;;;;;;;106.00;53.50;;;;;;;7.62;100.00;99630.27;133974;1307;22464;-86
2024/03/12 07:40:01;;;;;;;114.40;53.50;;;;;;;7.60;100.00;99635.64;133907;1305;22180;-86
2024/03/12 07:43:04;;;;;;;118.60;54.30;;;;;;;7.57;100.00;99636.76;133675;1305;22258;-86
2024/03/12 07:46:04;;;;;;;112.10;53.50;;;;;;;7.55;100.00;99639.98;133896;1307;22370;-85
2024/03/12 07:49:08;;;;;;;117.10;55.00;;;;;;;7.54;100.00;99641.14;133913;1300;22223;-86
2024/03/12 07:52:09;;;;;;;113.70;54.90;;;;;;;7.51;100.00;99643.46;133904;1302;23127;-86
2024/03/12 07:55:14;;;;;;;103.20;52.00;;;;;;;7.48;100.00;99644.11;133881;1296;22302;-85
2024/03/12 07:58:14;;;;;;;102.90;48.40;;;;;;;7.44;100.00;99641.81;133693;1301;22271;-86
2024/03/12 08:01:15;;;;;;;104.70;51.30;;;;;;;7.43;100.00;99644.21;133924;1302;22191;-86
2024/03/12 08:04:16;;;;;;;109.60;50.70;;;;;;;7.44;100.00;99647.66;133925;1301;22416;-86
2024/03/12 08:07:20;;;;;;;88.10;45.50;;;;;;;7.44;100.00;99651.20;133700;1301;22258;-86
2024/03/12 08:10:20;;;;;;;104.40;49.60;;;;;;;7.42;100.00;99650.11;133895;1301;22415;-86
2024/03/12 08:13:21;;;;;;;93.40;47.20;;;;;;;7.42;100.00;99653.68;133891;1301;23464;-86
2024/03/12 08:16:21;;;;;;;98.10;47.40;;;;;;;7.40;100.00;99652.26;133853;1307;22380;-86
2024/03/12 08:19:25;;;;;;;100.60;46.90;;;;;;;7.42;100.00;99658.23;133863;1302;22631;-86
2024/03/12 08:22:29;;;;;;;98.40;49.60;;;;;;;7.42;100.00;99659.30;133933;1302;22377;-86
2024/03/12 08:25:37;;;;;;;98.00;48.40;;;;;;;7.43;100.00;99664.48;133872;1306;23147;-86
2024/03/12 08:28:37;;;;;;;95.80;46.60;;;;;;;7.44;100.00;99666.36;133872;1300;22174;-86
2024/03/12 08:31:38;;;;;;;104.50;50.30;;;;;;;7.48;100.00;99669.09;133907;1301;22266;-86
2024/03/12 08:34:38;;;;;;;101.90;49.90;;;;;;;7.51;100.00;99673.85;133825;1300;22454;-86
2024/03/12 08:37:39;;;;;;;96.70;49.70;;;;;;;7.51;100.00;99674.05;133871;1302;22352;-87
2024/03/12 08:40:39;;;;;;;95.80;47.20;;;;;;;7.51;100.00;99671.94;133843;1300;22485;-87
2024/03/12 08:43:41;;;;;;;103.50;49.80;;;;;;;7.53;100.00;99671.75;133870;1300;22418;-86
2024/03/12 08:46:41;;;;;;;99.30;48.60;;;;;;;7.54;100.00;99673.21;133918;1301;22425;-87
2024/03/12 08:49:42;;;;;;;102.70;48.20;;;;;;;7.56;100.00;99675.96;133904;1305;23173;-87
2024/03/12 08:52:43;;;;;;;100.00;46.70;;;;;;;7.54;100.00;99677.10;133873;1302;22284;-87
2024/03/12 08:55:43;;;;;;;94.00;46.10;;;;;;;7.53;100.00;99682.77;133917;1302;23458;-87
2024/03/12 08:58:44;;;;;;;105.80;45.80;;;;;;;7.52;100.00;99685.94;133995;1296;22441;-86
2024/03/12 09:01:44;;;;;;;101.80;49.60;;;;;;;7.52;100.00;99683.09;133897;1302;22290;-86
2024/03/12 09:04:45;;;;;;;91.70;47.90;;;;;;;7.53;100.00;99688.32;133873;1302;22348;-86
2024/03/12 09:07:46;;;;;;;103.90;50.00;;;;;;;7.55;100.00;99691.92;133853;1304;22383;-87
2024/03/12 09:10:47;;;;;;;110.90;51.70;;;;;;;7.55;100.00;99687.73;133851;1300;22273;-87
2024/03/12 09:13:48;;;;;;;118.50;54.90;;;;;;;7.54;100.00;99693.77;133902;1302;22271;-84
2024/03/12 09:16:49;;;;;;;115.40;54.00;;;;;;;7.54;100.00;99696.47;133932;1302;22441;-84
2024/03/12 09:19:51;;;;;;;113.30;53.70;;;;;;;7.53;100.00;99695.72;133882;1305;22585;-84
2024/03/12 09:22:54;;;;;;;115.60;55.10;;;;;;;7.52;100.00;99700.66;133713;1307;22327;-84
2024/03/12 09:25:55;;;;;;;123.50;55.00;;;;;;;7.53;100.00;99701.63;133941;1307;22218;-84
2024/03/12 09:28:55;;;;;;;121.70;56.20;;;;;;;7.54;100.00;99702.29;133883;1305;22440;-84
2024/03/12 09:31:59;;;;;;;117.90;53.60;;;;;;;7.53;100.00;99701.59;133922;1306;22399;-84
2024/03/12 09:35:02;;;;;;;118.90;53.80;;;;;;;7.53;100.00;99703.91;133876;1305;22377;-84
2024/03/12 09:38:09;;;;;;;101.80;48.60;;;;;;;7.53;100.00;99706.08;133927;1300;23471;-84
2024/03/12 09:41:12;;;;;;;99.60;50.40;;;;;;;7.51;100.00;99709.61;133899;1302;24505;-84
2024/03/12 09:44:15;;;;;;;93.80;47.90;;;;;;;7.51;100.00;99710.83;133906;1289;22288;-85
2024/03/12 09:47:16;;;;;;;98.20;49.10;;;;;;;7.52;100.00;99711.72;133955;1289;22266;-85
2024/03/12 09:50:17;;;;;;;83.00;45.70;;;;;;;7.53;100.00;99716.01;133954;1301;22433;-84
2024/03/12 09:53:20;;;;;;;86.80;46.10;;;;;;;7.50;100.00;99720.74;133903;1301;22394;-84
2024/03/12 09:56:21;;;;;;;80.50;43.50;;;;;;;7.48;100.00;99717.48;133935;1306;22275;-84
2024/03/12 09:59:21;;;;;;;81.90;44.10;;;;;;;7.47;100.00;99719.02;133899;1302;22362;-84
2024/03/12 10:02:23;;;;;;;;;;;;;;;7.45;100.00;99721.14;133706;1302;257832;-85
2024/03/12 10:05:24;;;;;;;73.70;40.90;;;;;;;7.43;100.00;99724.84;133910;1302;23302;-84
2024/03/12 10:08:28;;;;;;;82.70;41.40;;;;;;;7.40;100.00;99725.34;133927;1302;22478;-84
2024/03/12 10:11:30;;;;;;;76.70;42.20;;;;;;;7.38;100.00;99725.89;133897;1304;22263;-84
2024/03/12 10:14:36;;;;;;;77.90;42.50;;;;;;;7.37;100.00;99725.59;133864;1302;22464;-82
2024/03/12 10:17:39;;;;;;;76.70;42.40;;;;;;;7.38;100.00;99727.61;134001;1308;23399;-83
2024/03/12 10:20:56;;;;;;;81.40;43.70;;;;;;;7.39;100.00;99730.39;133859;1305;22394;-81
2024/03/12 10:24:10;;;;;;;74.90;40.40;;;;;;;7.40;100.00;99732.17;133914;1307;22146;-82
2024/03/12 10:27:14;;;;;;;75.60;39.70;;;;;;;7.41;100.00;99730.89;133869;1305;22495;-82
2024/03/12 10:30:26;;;;;;;84.80;43.80;;;;;;;7.40;100.00;99734.44;133912;1307;22439;-81
2024/03/12 10:33:30;;;;;;;75.40;42.10;;;;;;;7.40;100.00;99735.47;133889;1302;22378;-81
2024/03/12 10:36:32;;;;;;;73.60;40.80;;;;;;;7.42;100.00;99741.65;133889;1307;22387;-81
2024/03/12 10:39:35;;;;;;;71.00;38.30;;;;;;;7.42;100.00;99743.63;133952;1307;22403;-82
2024/03/12 10:42:36;;;;;;;72.30;38.00;;;;;;;7.42;100.00;99749.00;133733;1301;22128;-82
2024/03/12 10:45:38;;;;;;;72.50;37.90;;;;;;;7.45;100.00;99746.81;133883;1305;22346;-81
2024/03/12 10:48:41;;;;;;;70.80;38.20;;;;;;;7.45;100.00;99747.70;133890;1304;22254;-82
2024/03/12 10:51:43;;;;;;;68.70;36.50;;;;;;;7.45;100.00;99751.60;133869;1306;22486;-82
2024/03/12 10:54:46;;;;;;;74.70;37.90;;;;;;;7.46;100.00;99755.31;133932;1301;22753;-82
2024/03/12 10:57:49;;;;;;;69.00;37.10;;;;;;;7.46;100.00;99751.15;133942;1308;22439;-82
2024/03/12 11:00:50;;;;;;;67.00;36.50;;;;;;;7.44;100.00;99756.08;133907;1307;22451;-80
2024/03/12 11:03:56;;;;;;;75.00;37.50;;;;;;;7.42;100.00;99758.02;133699;1301;22383;-81
2024/03/12 11:07:00;;;;;;;70.40;35.50;;;;;;;7.43;100.00;99759.30;133945;1302;23155;-81
2024/03/12 11:10:01;;;;;;;71.40;38.00;;;;;;;7.45;100.00;99758.93;133948;1296;22354;-81
2024/03/12 11:13:05;;;;;;;72.20;35.30;;;;;;;7.50;100.00;99761.96;133868;1301;22463;-81
2024/03/12 11:16:17;;;;;;;64.00;34.30;;;;;;;7.53;100.00;99757.10;133909;1305;22336;-82
2024/03/12 11:19:24;;;;;;;71.10;36.70;;;;;;;7.54;100.00;99762.08;133933;1307;22392;-82
2024/03/12 11:22:27;;;;;;;71.10;37.90;;;;;;;7.58;100.00;99760.83;133875;1307;23192;-81
2024/03/12 11:25:33;;;;;;;71.70;39.70;;;;;;;7.63;100.00;99757.45;133901;1302;22908;-82
2024/03/12 11:28:51;;;;;;;71.80;37.50;;;;;;;7.66;100.00;99761.01;133876;1305;23403;-82
2024/03/12 11:31:52;;;;;;;69.80;36.60;;;;;;;7.72;100.00;99760.08;133861;1307;22151;-82
2024/03/12 11:34:54;;;;;;;;;;;;;;;7.74;100.00;99760.77;133900;1305;23149;-82
2024/03/12 11:38:00;;;;;;;69.10;34.20;;;;;;;7.73;100.00;99764.53;133889;1300;22225;-82
2024/03/12 11:41:02;;;;;;;67.40;36.60;;;;;;;7.74;100.00;99763.95;133879;1301;23116;-81
2024/03/12 11:44:03;;;;;;;66.70;36.20;;;;;;;7.73;100.00;99765.20;133750;1305;22284;-81
2024/03/12 11:47:05;;;;;;;68.70;36.40;;;;;;;7.77;100.00;99765.45;133901;1301;22257;-82
2024/03/12 11:50:30;;;;;;;76.00;38.20;;;;;;;7.78;100.00;99763.84;133936;1300;22480;-81
2024/03/12 11:53:38;;;;;;;71.40;37.30;;;;;;;7.76;100.00;99770.04;133820;1300;23173;-81
2024/03/12 11:56:53;;;;;;;69.70;37.50;;;;;;;7.75;100.00;99763.68;133734;1301;22334;-81
2024/03/12 11:59:56;;;;;;;69.30;36.60;;;;;;;7.78;100.00;99768.98;133750;1302;23158;-81
2024/03/12 12:03:00;;;;;;;72.60;37.60;;;;;;;7.81;100.00;99768.51;133915;1305;22294;-81
2024/03/12 12:06:01;;;;;;;69.60;36.60;;;;;;;7.81;100.00;99769.93;133846;1301;23659;-80
2024/03/12 12:09:05;;;;;;;78.00;38.80;;;;;;;7.80;100.00;99769.44;133859;1302;22359;-80
2024/03/12 12:12:08;;;;;;;75.50;38.20;;;;;;;7.82;100.00;99768.60;133876;1307;22644;-80
2024/03/12 12:15:11;;;;;;;74.00;40.50;;;;;;;7.83;100.00;99768.70;133905;1301;22366;-81
2024/03/12 12:18:11;;;;;;;80.50;40.30;;;;;;;7.82;100.00;99771.17;133871;1301;22485;-80
2024/03/12 12:21:14;;;;;;;79.70;39.80;;;;;;;7.82;100.00;99767.98;133872;1305;22708;-80
2024/03/12 12:24:15;;;;;;;80.60;42.20;;;;;;;7.86;100.00;99770.45;133921;1301;23533;-80
2024/03/12 12:27:21;;;;;;;76.90;40.60;;;;;;;7.89;100.00;99772.27;133892;1302;22384;-80
2024/03/12 12:30:22;;;;;;;82.10;43.50;;;;;;;7.91;100.00;99771.76;133898;1307;22237;-80
2024/03/12 12:33:25;;;;;;;78.70;42.30;;;;;;;7.92;100.00;99771.90;133824;1302;22284;-80
2024/03/12 12:36:30;;;;;;;81.20;43.60;;;;;;;7.92;100.00;99776.13;133882;1303;22406;-80
2024/03/12 12:39:34;;;;;;;89.10;43.30;;;;;;;7.93;100.00;99777.29;133901;1305;23121;-80
2024/03/12 12:42:38;;;;;;;90.30;46.90;;;;;;;7.94;100.00;99776.46;133941;1307;22510;-80
2024/03/12 12:45:39;;;;;;;93.80;45.50;;;;;;;7.94;100.00;99776.02;133923;1307;22825;-80
2024/03/12 12:48:40;;;;;;;;;;;;;;;7.93;100.00;99776.30;133885;1300;22456;-80
2024/03/12 12:51:44;;;;;;;103.50;44.90;;;;;;;7.91;100.00;99774.01;133883;1303;22307;-80
2024/03/12 12:54:48;;;;;;;92.10;43.20;;;;;;;7.90;100.00;99778.69;133850;1302;22308;-80
2024/03/12 12:57:58;;;;;;;97.00;44.40;;;;;;;7.91;100.00;99780.11;133908;1300;22272;-80
2024/03/12 13:01:00;;;;;;;94.30;45.00;;;;;;;7.94;100.00;99776.11;133814;1301;22255;-80
2024/03/12 13:04:01;;;;;;;89.30;43.40;;;;;;;7.95;100.00;99776.77;133853;1302;22512;-80
2024/03/12 13:07:02;;;;;;;89.80;45.10;;;;;;;7.96;100.00;99780.66;133886;1307;22523;-80
2024/03/12 13:10:19;;;;;;;88.40;43.00;;;;;;;7.98;100.00;99781.70;133871;1300;22378;-80
2024/03/12 13:13:19;;;;;;;93.20;46.70;;;;;;;8.01;100.00;99785.94;133694;1306;22365;-80
2024/03/12 13:16:24;;;;;;;96.60;47.70;;;;;;;8.03;100.00;99787.01;133904;1301;22266;-80
2024/03/12 13:19:26;;;;;;;99.50;48.50;;;;;;;8.05;100.00;99788.03;133879;1300;22351;-80
2024/03/12 13:22:27;;;;;;;97.50;48.40;;;;;;;8.06;100.00;99788.98;133905;1307;22360;-80
2024/03/12 13:25:28;;;;;;;;;;;;;;;8.06;100.00;99791.48;133917;1302;22522;-80
2024/03/12 13:28:29;;;;;;;95.00;47.60;;;;;;;8.06;100.00;99791.78;133864;1302;22386;-80
2024/03/12 13:31:29;;;;;;;85.50;45.90;;;;;;;8.08;100.00;99791.89;133788;1302;22476;-81
2024/03/12 13:34:30;;;;;;;87.90;46.30;;;;;;;8.08;100.00;99788.36;133856;1302;22387;-80
2024/03/12 13:37:30;;;;;;;89.10;47.60;;;;;;;8.10;100.00;99792.06;133887;1300;22329;-80
2024/03/12 13:40:31;;;;;;;86.80;45.80;;;;;;;8.13;100.00;99793.62;133905;1289;22384;-80
2024/03/12 13:43:32;;;;;;;81.60;44.80;;;;;;;8.13;100.00;99795.48;133902;1302;23160;-80
2024/03/12 13:46:32;;;;;;;88.20;46.80;;;;;;;8.15;100.00;99795.52;133862;1301;22270;-80
2024/03/12 13:49:33;;;;;;;85.60;45.30;;;;;;;8.17;100.00;99797.02;133870;1299;22284;-81
2024/03/12 13:52:38;;;;;;;85.30;46.40;;;;;;;8.17;100.00;99798.23;133884;1302;22542;-81
2024/03/12 13:55:39;;;;;;;86.00;45.40;;;;;;;8.16;100.00;99802.25;133821;1305;22380;-80
2024/03/12 13:58:40;;;;;;;83.60;46.30;;;;;;;8.17;100.00;99804.64;133877;1302;22301;-80
2024/03/12 14:01:40;;;;;;;;;;;;;;;8.19;100.00;99804.92;133892;1302;22462;-81
2024/03/12 14:04:41;;;;;;;79.10;45.00;;;;;;;8.19;100.00;99806.66;133920;1302;22228;-81